Latest Coastal Weather Observations for Esperance

IDW60701

Issued at 11:13 am WST Friday 20 October 2017 (issued every 10 minutes, with the page automatically refreshed every 10 minutes)

About coastal observations | Map of coastal stations | Coastal observations for WA | Marine services | Other Formats
Station Details ID: 009789 Name: ESPERANCE Lat: -33.83 Lon: 121.89 Height: 25.0 m
Data from the previous 72 hours. | See also: Recent months at Esperance
Date/Time
WST
Temp
°C
Wind Pressure Rain since
9am
mm
Weather Cloud Vis
km
Sea
Height
m
Swell
Dir  Spd
kts
Gust
kts
hPa Trend Height
m
Period
s
Dir
20/11:00am 21.3 NE 10 17 1031.0 - 0.0 - Clear 10 - - - -
20/10:30am 19.9 ENE 10 17 1031.5 - 0.0 - - 10 - - - -
20/10:00am 19.7 NE 9 15 1032.1 - 0.0 - - 10 - - - -
20/09:30am 18.9 ENE 8 16 1032.6 - 0.0 - - 10 - - - -
20/09:00am 17.2 NE 11 16 1032.8 F 0.0 - - 10 - - - -
20/08:30am 17.1 ENE 10 15 1033.2 - 0.0 - - 10 - - - -
20/08:00am 14.9 NE 9 14 1033.3 - 0.0 - - 10 - - - -
20/07:30am 13.6 ENE 8 12 1033.2 - 0.0 - - 10 - - - -
20/07:00am 11.7 NE 7 10 1033.3 - 0.0 - - 10 - - - -
20/06:30am 10.2 NE 5 7 1033.3 - 0.0 - - 10 - - - -
20/06:00am 9.2 ENE 4 6 1033.2 R 0.0 - - 10 - - - -
20/05:30am 8.6 ENE 6 7 1033.0 - 0.0 - - 10 - - - -
20/05:00am 8.6 NE 5 6 1032.3 - 0.0 - - 10 - - - -
20/04:30am 8.3 NNE 3 4 1032.0 - 0.0 - - 10 - - - -
20/04:00am 8.3 NE 5 6 1031.7 - 0.0 - - 10 - - - -
20/03:30am 8.9 NE 7 9 1031.5 - 0.0 - - 10 - - - -
20/03:00am 8.9 ENE 6 9 1031.4 F 0.0 - - 10 - - - -
20/02:30am 8.9 ENE 6 8 1031.5 - 0.0 - - 10 - - - -
20/02:00am 9.3 ENE 7 10 1031.5 - 0.0 - - 10 - - - -
20/01:30am 9.5 NE 8 10 1031.5 - 0.0 - - 10 - - - -
20/01:00am 9.5 ENE 5 7 1031.5 - 0.0 - - 10 - - - -
20/12:30am 9.9 ENE 5 7 1031.7 - 0.0 - - 10 - - - -
20/12:00am 10.6 NE 6 8 1032.3 R 0.0 - - 10 - - - -
 
Date/Time
WST
Temp
°C
Wind Pressure Rain since
9am
mm
Weather Cloud Vis
km
Sea
Height
m
Swell
Dir  Spd
kts
Gust
kts
hPa Trend Height
m
Period
s
Dir
19/11:30pm 10.9 ENE 6 8 1032.1 - 0.0 - - 10 - - - -
19/11:00pm 11.1 ENE 6 9 1031.8 - 0.0 - - 10 - - - -
19/10:30pm 11.5 E 6 9 1031.7 - 0.0 - - 10 - - - -
19/10:00pm 11.6 ENE 6 9 1031.9 - 0.0 - - 10 - - - -
19/09:30pm 12.0 ENE 5 7 1031.9 - 0.0 - Partly cloudy 10 - - - -
19/09:00pm 12.7 E 7 9 1031.9 R 0.0 - - 10 - - - -
19/08:30pm 13.9 E 7 11 1031.7 - 0.0 - - 10 - - - -
19/08:00pm 14.4 ESE 11 17 1031.5 - 0.0 - - 10 - - - -
19/07:30pm 14.5 ESE 12 17 1031.0 - 0.0 - - 10 - - - -
19/07:00pm 14.7 ESE 11 16 1030.6 - 0.0 - - 10 - - - -
19/06:30pm 14.9 ESE 14 19 1030.0 - 0.0 - - 10 - - - -
19/06:00pm 15.1 SE 13 17 1029.8 R 0.0 - - 10 - - - -
19/05:30pm 15.5 SE 14 19 1029.5 - 0.0 - - 10 - - - -
19/05:00pm 15.8 SE 15 19 1029.1 - 0.0 - - 10 - - - -
19/04:30pm 16.2 SE 16 20 1029.0 - 0.0 - - 10 - - - -
19/04:00pm 16.5 SSE 15 18 1028.9 - 0.0 - - 10 - - - -
19/03:30pm 16.9 SSE 13 18 1028.6 - 0.0 - - 10 - - - -
19/03:00pm 16.9 SSE 13 17 1028.5 F 0.0 - - 10 - - - -
19/02:30pm 16.7 SSE 14 18 1028.5 - 0.0 - - 10 - - - -
19/02:00pm 17.4 SE 14 17 1028.8 - 0.0 - - 10 - - - -
19/01:30pm 16.9 SE 13 17 1029.0 - 0.0 - - 10 - - - -
19/01:00pm 17.7 SE 13 17 1029.3 - 0.0 - - 10 - - - -
19/12:30pm 18.3 SSE 11 15 1029.4 - 0.0 - - 10 - - - -
19/12:00pm 17.3 SSE 10 14 1029.5 R 0.0 - - 10 - - - -
19/11:30am 18.2 SE 10 13 1029.6 - 0.0 - Partly cloudy 10 - - - -
19/11:00am 17.7 SE 10 15 1029.7 - 0.0 - Cloudy 10 - - - -
19/10:30am 16.6 SE 9 14 1030.0 - 0.0 - Partly cloudy 10 - - - -
19/10:00am 16.8 SSE 9 13 1030.0 - 0.0 - Partly cloudy 10 - - - -
19/09:30am 17.4 SSE 8 11 1029.8 - 0.0 - Partly cloudy 10 - - - -
19/09:00am 17.4 SSE 7 11 1029.8 R 0.0 - Partly cloudy 10 - - - -
19/08:30am 17.0 S 7 10 1029.4 - 0.0 - Partly cloudy 10 - - - -
19/08:00am 16.6 SSE 9 14 1029.0 - 0.0 - Partly cloudy 10 - - - -
19/07:30am 14.2 SW 5 6 1028.8 - 0.0 - Partly cloudy 10 - - - -
19/07:00am 14.5 WNW 3 4 1028.4 - 0.0 - Partly cloudy 10 - - - -
19/06:30am 13.3 WNW 4 5 1028.1 - 0.0 - Cloudy 10 - - - -
19/06:00am 12.9 WSW 3 3 1027.5 R 0.0 - Mostly cloudy 10 - - - -
19/05:30am 12.4 SW 4 5 1027.1 - 0.0 - Partly cloudy 10 - - - -
19/05:00am 12.3 SW 5 7 1026.7 - 0.0 - Partly cloudy 10 - - - -
19/04:30am 12.2 SW 6 9 1026.3 - 0.0 - Partly cloudy 10 - - - -
19/04:00am 12.2 SW 6 8 1026.0 - 0.0 - Partly cloudy 10 - - - -
19/03:30am 12.1 SW 5 7 1025.4 - 0.0 - Partly cloudy 10 - - - -
19/03:00am 12.4 SW 5 6 1025.0 R 0.0 - Mostly cloudy 10 - - - -
19/02:30am 12.1 SW 6 9 1024.9 - 0.0 - - 10 - - - -
19/02:00am 11.9 SW 6 10 1024.8 - 0.0 - - 10 - - - -
19/01:30am 12.1 SW 6 8 1024.8 - 0.0 - - 10 - - - -
19/01:00am 12.3 SW 7 9 1024.7 - 0.0 - - 10 - - - -
19/12:30am 12.6 SW 4 6 1024.6 - 0.0 - - 10 - - - -
19/12:00am 12.6 SW 6 9 1024.6 R 0.0 - - 10 - - - -
 
Date/Time
WST
Temp
°C
Wind Pressure Rain since
9am
mm
Weather Cloud Vis
km
Sea
Height
m
Swell
Dir  Spd
kts
Gust
kts
hPa Trend Height
m
Period
s
Dir
18/11:30pm 12.9 SW 6 10 1024.5 - 0.0 - - 10 - - - -
18/11:00pm 13.3 SW 7 9 1024.4 - 0.0 - - 10 - - - -
18/10:30pm 13.3 SW 8 12 1024.3 - 0.0 - - 10 - - - -
18/10:00pm 13.6 SW 9 13 1024.4 - 0.0 - Partly cloudy 10 - - - -
18/09:30pm 13.7 SW 7 11 1024.4 - 0.0 - Partly cloudy 10 - - - -
18/09:00pm 13.8 SW 7 12 1024.2 R 0.0 - Partly cloudy 10 - - - -
18/08:30pm 13.9 SW 7 12 1023.9 - 0.0 - Partly cloudy 10 - - - -
18/08:00pm 13.9 SW 9 13 1023.5 - 0.0 - Partly cloudy 10 - - - -
18/07:30pm 14.3 SSW 10 15 1022.9 - 0.0 - Partly cloudy 10 - - - -
18/07:00pm 13.8 SW 7 11 1022.3 - 0.0 - Partly cloudy 10 - - - -
18/06:30pm 14.0 SW 8 13 1021.6 - 0.0 - - 10 - - - -
18/06:00pm 14.3 SW 9 14 1021.1 R 0.0 - - 10 - - - -
18/05:30pm 14.8 SSW 10 17 1020.5 - 0.0 - - 10 - - - -
18/05:00pm 15.3 SSW 14 19 1019.8 - 0.0 - - 10 - - - -
18/04:30pm 15.9 SSW 12 19 1019.4 - 0.0 - - 10 - - - -
18/04:00pm 16.5 SW 13 21 1018.9 - 0.0 - - 10 - - - -
18/03:41pm 16.3 SSW 15 25 1018.6 - 0.0 - - 10 - - - -
18/03:30pm 16.3 SSW 15 21 1018.4 - 0.0 - - 10 - - - -
18/03:00pm 17.2 SW 12 19 1018.1 R 0.0 - - 10 - - - -
18/02:30pm 16.9 SW 16 22 1018.1 - 0.0 - Mostly clear 10 - - - -
18/02:07pm 17.2 SW 15 25 1018.0 - 0.0 - Mostly clear 10 - - - -
18/02:00pm 17.2 SW 13 23 1018.0 - 0.0 - Mostly clear 10 - - - -
18/01:30pm 17.1 SW 15 25 1017.9 - 0.0 - Mostly clear 10 - - - -
18/01:00pm 17.5 SW 14 25 1017.8 - 0.0 - Mostly clear 10 - - - -
18/12:33pm 16.9 WSW 16 26 1017.7 - 0.0 - Mostly clear 10 - - - -
18/12:30pm 16.6 WSW 14 23 1017.7 - 0.0 - Mostly clear 10 - - - -
18/12:00pm 17.2 WSW 14 21 1017.4 R 0.0 - Mostly clear 10 - - - -
18/11:30am 17.1 WSW 14 25 1017.6 - 0.0 - Mostly clear 10 - - - -
18/11:00am 16.7 WSW 15 23 1017.5 - 0.0 - Mostly clear 10 - - - -
18/10:30am 16.8 WSW 13 23 1017.3 - 0.0 - Mostly clear 10 - - - -
18/10:00am 16.5 W 15 24 1016.9 - 0.0 - Mostly clear 10 - - - -
18/09:30am 16.0 W 14 25 1016.7 - 0.0 - Mostly clear 10 - - - -
18/09:00am 15.9 W 13 20 1016.7 R 0.0 - Partly cloudy 10 - - - -
18/08:30am 15.5 W 12 21 1016.1 - 0.0 - Mostly clear 10 - - - -
18/08:00am 15.0 W 14 22 1015.7 - 0.0 - Mostly clear 10 - - - -
18/07:30am 14.9 W 12 19 1015.2 - 0.0 - Mostly clear 10 - - - -
18/07:00am 13.8 WNW 12 19 1014.6 - 0.0 - Mostly clear 10 - - - -
18/06:30am 13.1 WNW 10 19 1014.2 - 0.0 - Partly cloudy 10 - - - -
18/06:00am 12.7 WNW 12 17 1013.8 R 0.0 - Cloudy 10 - - - -
18/05:30am 12.7 WNW 11 17 1013.3 - 0.0 - Cloudy 10 - - - -
18/05:00am 14.2 W 14 24 1012.6 - 0.0 - Cloudy 10 - - - -
18/04:30am 13.5 W 11 18 1011.9 - 0.0 - Partly cloudy 10 - - - -
18/04:08am 12.7 W 11 21 1011.6 - 0.0 - Partly cloudy 10 - - - -
18/04:00am 12.5 W 14 24 1011.5 - 0.0 - Partly cloudy 9 - - - -
18/03:51am 12.6 W 13 22 1011.5 - 0.0 - Partly cloudy 5 - - - -
18/03:46am 12.6 W 15 25 1011.4 - 0.0 - Partly cloudy 6 - - - -
18/03:41am 12.9 WSW 16 25 1011.2 - 0.0 - Partly cloudy 10 - - - -
18/03:33am 13.1 WSW 18 33 1010.9 - 0.0 - Partly cloudy 7 - - - -
18/03:30am 13.2 W 18 33 1010.8 - 0.0 - Partly cloudy 10 - - - -
18/03:26am 13.8 WNW 18 33 1010.7 - 0.0 - Partly cloudy 10 - - - -
18/03:21am 14.4 WNW 15 31 1010.2 - 0.0 - Partly cloudy 10 - - - -
18/03:00am 14.4 WNW 15 20 1009.4 R 0.0 - - 10 - - - -
18/02:30am 15.0 NW 14 21 1008.9 - 0.0 - - 10 - - - -
18/02:00am 15.0 NW 14 19 1008.5 - 0.0 - - 10 - - - -
18/01:30am 15.2 NW 12 18 1008.3 - 0.0 - - 10 - - - -
18/01:00am 15.7 NW 13 17 1008.4 - 0.0 - - 10 - - - -
18/12:30am 15.8 NW 11 15 1008.5 - 0.0 - - 10 - - - -
18/12:00am 15.5 WNW 9 12 1008.7 R 0.0 - - 10 - - - -
 
Date/Time
WST
Temp
°C
Wind Pressure Rain since
9am
mm
Weather Cloud Vis
km
Sea
Height
m
Swell
Dir  Spd
kts
Gust
kts
hPa Trend Height
m
Period
s
Dir
17/11:30pm 16.1 NW 9 12 1008.7 - 0.0 - - 10 - - - -
17/11:00pm 15.9 NW 8 11 1008.5 - 0.0 - - 10 - - - -
17/10:30pm 15.4 WNW 6 7 1008.5 - 0.0 - - 10 - - - -
17/10:00pm 15.1 NNW 4 5 1008.5 - 0.0 - Partly cloudy 10 - - - -
17/09:30pm 15.4 N 6 8 1008.4 - 0.0 - Partly cloudy 10 - - - -
17/09:00pm 15.7 N 6 7 1008.3 R 0.0 - Cloudy 10 - - - -
17/08:30pm 16.2 NE 6 9 1008.4 - 0.0 - Partly cloudy 10 - - - -
17/08:00pm 16.3 NNE 7 10 1008.3 - 0.0 - Partly cloudy 10 - - - -
17/07:30pm 16.7 NE 5 7 1008.1 - 0.0 - Partly cloudy 10 - - - -
17/07:00pm 17.0 ENE 5 8 1007.5 - 0.0 - Partly cloudy 10 - - - -
17/06:30pm 17.2 ENE 5 7 1006.9 - 0.0 - Partly cloudy 10 - - - -
17/06:00pm 17.5 E 4 5 1006.7 S 0.0 - Partly cloudy 10 - - - -
17/05:30pm 17.3 ESE 7 9 1006.4 - 0.0 - Partly cloudy 10 - - - -
17/05:00pm 18.4 SE 7 9 1006.3 - 0.0 - Partly cloudy 10 - - - -
17/04:30pm 18.3 SE 8 10 1006.3 - 0.0 - Partly cloudy 10 - - - -
17/04:00pm 18.7 SSE 9 11 1006.4 - 0.0 - Partly cloudy 10 - - - -
17/03:30pm 18.7 SE 10 13 1006.3 - 0.0 - Partly cloudy 10 - - - -
17/03:00pm 19.2 SE 11 14 1006.3 F 0.0 - - 10 - - - -
17/02:30pm 20.5 S 8 11 1006.5 - 0.0 - - 10 - - - -
17/02:00pm 20.8 S 9 12 1006.5 - 0.0 - Partly cloudy 10 - - - -
17/01:30pm 20.3 SSW 10 14 1006.8 - 0.0 - Partly cloudy 10 - - - -
17/01:00pm 20.5 SSE 12 16 1006.9 - 0.0 - - 10 - - - -
17/12:30pm 20.7 S 12 18 1007.0 - 0.0 - Partly cloudy 10 - - - -
17/12:00pm 21.2 SSW 9 15 1007.5 R 0.0 - Mostly clear 10 - - - -
17/11:56am 21.7 SSW 9 13 1007.6 - 0.0 - Partly cloudy 10 - - - -
17/11:30am 21.3 SW 6 9 1007.6 - 0.0 - Partly cloudy 10 - - - -

Other Formats:

Comma delimited format used in spreadsheet applications
http://www.bom.gov.au/fwo/IDW60701/IDW60701.94638.axf

JavaScript Object Notation format (JSON) in row-major order
http://www.bom.gov.au/fwo/IDW60701/IDW60701.94638.json